sensor_id;sensor_type;location;lat;lon;timestamp;P1;durP1;ratioP1;P2;durP2;ratioP2
13368;SDS011;6753;52.520;13.450;2023-08-17T00:00:06;525.50;;;309.88;;
13368;SDS011;6753;52.520;13.450;2023-08-17T00:00:20;527.20;;;309.50;;
13368;SDS011;6753;52.520;13.450;2023-08-17T00:00:31;528.63;;;309.42;;
13368;SDS011;6753;52.520;13.450;2023-08-17T00:00:42;525.83;;;306.65;;
13368;SDS011;6753;52.520;13.450;2023-08-17T00:00:53;522.20;;;304.10;;
13368;SDS011;6753;52.520;13.450;2023-08-17T00:01:06;517.83;;;303.52;;
13368;SDS011;6753;52.520;13.450;2023-08-17T00:01:19;513.05;;;303.42;;
13368;SDS011;6753;52.520;13.450;2023-08-17T00:01:29;510.48;;;300.98;;
13368;SDS011;6753;52.520;13.450;2023-08-17T00:01:40;509.17;;;300.42;;
13368;SDS011;6753;52.520;13.450;2023-08-17T00:01:51;512.97;;;301.85;;
13368;SDS011;6753;52.520;13.450;2023-08-17T00:02:02;515.40;;;304.20;;
13368;SDS011;6753;52.520;13.450;2023-08-17T00:02:12;515.30;;;303.95;;
13368;SDS011;6753;52.520;13.450;2023-08-17T00:02:25;515.58;;;305.15;;
13368;SDS011;6753;52.520;13.450;2023-08-17T00:02:35;513.95;;;305.88;;
13368;SDS011;6753;52.520;13.450;2023-08-17T00:02:46;513.63;;;307.13;;
13368;SDS011;6753;52.520;13.450;2023-08-17T00:02:57;510.92;;;306.48;;
13368;SDS011;6753;52.520;13.450;2023-08-17T00:03:09;515.50;;;308.60;;
13368;SDS011;6753;52.520;13.450;2023-08-17T00:03:20;519.13;;;309.80;;
13368;SDS011;6753;52.520;13.450;2023-08-17T00:03:31;526.42;;;311.60;;
13368;SDS011;6753;52.520;13.450;2023-08-17T00:03:41;530.38;;;313.40;;
13368;SDS011;6753;52.520;13.450;2023-08-17T00:03:52;532.45;;;314.77;;
13368;SDS011;6753;52.520;13.450;2023-08-17T00:04:03;533.80;;;316.60;;
13368;SDS011;6753;52.520;13.450;2023-08-17T00:04:14;534.13;;;315.75;;
13368;SDS011;6753;52.520;13.450;2023-08-17T00:04:24;533.03;;;314.98;;
13368;SDS011;6753;52.520;13.450;2023-08-17T00:04:35;527.17;;;313.55;;
13368;SDS011;6753;52.520;13.450;2023-08-17T00:04:46;523.00;;;310.50;;
13368;SDS011;6753;52.520;13.450;2023-08-17T00:04:58;520.42;;;306.73;;
13368;SDS011;6753;52.520;13.450;2023-08-17T00:05:08;520.75;;;306.17;;
13368;SDS011;6753;52.520;13.450;2023-08-17T00:05:19;516.70;;;305.40;;
13368;SDS011;6753;52.520;13.450;2023-08-17T00:05:30;517.78;;;305.52;;
13368;SDS011;6753;52.520;13.450;2023-08-17T00:05:43;520.90;;;306.20;;
13368;SDS011;6753;52.520;13.450;2023-08-17T00:05:53;526.03;;;309.23;;
13368;SDS011;6753;52.520;13.450;2023-08-17T00:06:04;529.70;;;313.27;;
13368;SDS011;6753;52.520;13.450;2023-08-17T00:06:15;532.22;;;315.77;;
13368;SDS011;6753;52.520;13.450;2023-08-17T00:06:26;539.67;;;320.25;;
13368;SDS011;6753;52.520;13.450;2023-08-17T00:06:37;541.95;;;324.10;;
13368;SDS011;6753;52.520;13.450;2023-08-17T00:06:47;542.47;;;323.30;;
13368;SDS011;6753;52.520;13.450;2023-08-17T00:06:59;539.15;;;322.08;;
13368;SDS011;6753;52.520;13.450;2023-08-17T00:07:10;535.25;;;319.20;;
13368;SDS011;6753;52.520;13.450;2023-08-17T00:07:21;531.55;;;317.08;;
13368;SDS011;6753;52.520;13.450;2023-08-17T00:07:32;525.63;;;312.65;;
13368;SDS011;6753;52.520;13.450;2023-08-17T00:07:43;519.97;;;309.53;;
13368;SDS011;6753;52.520;13.450;2023-08-17T00:07:53;525.50;;;312.50;;
13368;SDS011;6753;52.520;13.450;2023-08-17T00:08:04;529.85;;;315.33;;
13368;SDS011;6753;52.520;13.450;2023-08-17T00:08:15;533.03;;;317.13;;
13368;SDS011;6753;52.520;13.450;2023-08-17T00:08:27;534.22;;;319.33;;
13368;SDS011;6753;52.520;13.450;2023-08-17T00:08:39;538.45;;;319.88;;
13368;SDS011;6753;52.520;13.450;2023-08-17T00:08:49;539.13;;;320.80;;
13368;SDS011;6753;52.520;13.450;2023-08-17T00:09:00;537.70;;;320.40;;
13368;SDS011;6753;52.520;13.450;2023-08-17T00:09:11;537.92;;;320.98;;
13368;SDS011;6753;52.520;13.450;2023-08-17T00:09:22;539.97;;;320.60;;
13368;SDS011;6753;52.520;13.450;2023-08-17T00:09:34;539.67;;;319.67;;
13368;SDS011;6753;52.520;13.450;2023-08-17T00:09:45;543.13;;;322.73;;
13368;SDS011;6753;52.520;13.450;2023-08-17T00:09:55;543.40;;;323.80;;
13368;SDS011;6753;52.520;13.450;2023-08-17T00:10:06;541.15;;;322.08;;
13368;SDS011;6753;52.520;13.450;2023-08-17T00:10:19;541.58;;;322.48;;
13368;SDS011;6753;52.520;13.450;2023-08-17T00:10:29;540.72;;;322.05;;
13368;SDS011;6753;52.520;13.450;2023-08-17T00:10:40;536.70;;;319.92;;
13368;SDS011;6753;52.520;13.450;2023-08-17T00:10:51;530.90;;;317.43;;
13368;SDS011;6753;52.520;13.450;2023-08-17T00:11:01;532.88;;;318.23;;
13368;SDS011;6753;52.520;13.450;2023-08-17T00:11:12;525.78;;;311.85;;
13368;SDS011;6753;52.520;13.450;2023-08-17T00:11:23;519.75;;;307.08;;
13368;SDS011;6753;52.520;13.450;2023-08-17T00:11:34;522.22;;;306.92;;
13368;SDS011;6753;52.520;13.450;2023-08-17T00:11:45;526.97;;;310.30;;
13368;SDS011;6753;52.520;13.450;2023-08-17T00:11:57;529.92;;;312.27;;
13368;SDS011;6753;52.520;13.450;2023-08-17T00:12:08;531.88;;;313.70;;
13368;SDS011;6753;52.520;13.450;2023-08-17T00:12:18;535.45;;;318.17;;
13368;SDS011;6753;52.520;13.450;2023-08-17T00:12:29;534.13;;;319.60;;
13368;SDS011;6753;52.520;13.450;2023-08-17T00:12:40;537.30;;;322.02;;
13368;SDS011;6753;52.520;13.450;2023-08-17T00:12:51;539.33;;;323.10;;
13368;SDS011;6753;52.520;13.450;2023-08-17T00:13:01;544.63;;;326.80;;
13368;SDS011;6753;52.520;13.450;2023-08-17T00:13:14;549.70;;;332.58;;
13368;SDS011;6753;52.520;13.450;2023-08-17T00:13:25;555.60;;;336.33;;
13368;SDS011;6753;52.520;13.450;2023-08-17T00:13:36;556.67;;;337.00;;
13368;SDS011;6753;52.520;13.450;2023-08-17T00:13:47;558.17;;;337.60;;
13368;SDS011;6753;52.520;13.450;2023-08-17T00:13:58;555.25;;;337.00;;
13368;SDS011;6753;52.520;13.450;2023-08-17T00:14:09;556.85;;;336.77;;
13368;SDS011;6753;52.520;13.450;2023-08-17T00:14:20;559.47;;;338.33;;
13368;SDS011;6753;52.520;13.450;2023-08-17T00:14:31;559.85;;;339.77;;
13368;SDS011;6753;52.520;13.450;2023-08-17T00:14:42;558.88;;;340.27;;
13368;SDS011;6753;52.520;13.450;2023-08-17T00:14:53;560.73;;;342.33;;
13368;SDS011;6753;52.520;13.450;2023-08-17T00:15:04;560.70;;;342.30;;
13368;SDS011;6753;52.520;13.450;2023-08-17T00:15:16;562.75;;;344.30;;
13368;SDS011;6753;52.520;13.450;2023-08-17T00:15:26;568.30;;;348.00;;
13368;SDS011;6753;52.520;13.450;2023-08-17T00:15:38;570.92;;;349.50;;
13368;SDS011;6753;52.520;13.450;2023-08-17T00:15:49;570.47;;;348.88;;
13368;SDS011;6753;52.520;13.450;2023-08-17T00:16:00;569.33;;;349.92;;
13368;SDS011;6753;52.520;13.450;2023-08-17T00:16:11;569.85;;;348.60;;
13368;SDS011;6753;52.520;13.450;2023-08-17T00:16:22;568.58;;;346.88;;
13368;SDS011;6753;52.520;13.450;2023-08-17T00:16:33;567.10;;;345.48;;
13368;SDS011;6753;52.520;13.450;2023-08-17T00:16:44;568.40;;;348.17;;
13368;SDS011;6753;52.520;13.450;2023-08-17T00:16:55;571.17;;;348.48;;
13368;SDS011;6753;52.520;13.450;2023-08-17T00:17:06;577.50;;;352.17;;
13368;SDS011;6753;52.520;13.450;2023-08-17T00:17:17;580.95;;;354.38;;
13368;SDS011;6753;52.520;13.450;2023-08-17T00:17:31;583.30;;;356.38;;
13368;SDS011;6753;52.520;13.450;2023-08-17T00:17:42;585.50;;;357.48;;
13368;SDS011;6753;52.520;13.450;2023-08-17T00:17:53;583.37;;;355.47;;
13368;SDS011;6753;52.520;13.450;2023-08-17T00:18:04;579.38;;;353.02;;
13368;SDS011;6753;52.520;13.450;2023-08-17T00:18:15;578.42;;;353.05;;
13368;SDS011;6753;52.520;13.450;2023-08-17T00:18:25;579.10;;;354.00;;
13368;SDS011;6753;52.520;13.450;2023-08-17T00:18:36;578.83;;;350.00;;
13368;SDS011;6753;52.520;13.450;2023-08-17T00:18:47;585.25;;;352.75;;
13368;SDS011;6753;52.520;13.450;2023-08-17T00:18:58;586.92;;;352.50;;
13368;SDS011;6753;52.520;13.450;2023-08-17T00:19:09;584.05;;;349.70;;
13368;SDS011;6753;52.520;13.450;2023-08-17T00:19:20;585.67;;;350.43;;
13368;SDS011;6753;52.520;13.450;2023-08-17T00:19:31;585.75;;;350.85;;
13368;SDS011;6753;52.520;13.450;2023-08-17T00:19:42;587.17;;;355.08;;
13368;SDS011;6753;52.520;13.450;2023-08-17T00:19:52;597.13;;;362.73;;
13368;SDS011;6753;52.520;13.450;2023-08-17T00:20:03;598.65;;;366.65;;
13368;SDS011;6753;52.520;13.450;2023-08-17T00:20:15;602.28;;;370.63;;
13368;SDS011;6753;52.520;13.450;2023-08-17T00:20:26;605.70;;;375.08;;
13368;SDS011;6753;52.520;13.450;2023-08-17T00:20:37;607.30;;;376.20;;
13368;SDS011;6753;52.520;13.450;2023-08-17T00:20:47;603.55;;;374.15;;
13368;SDS011;6753;52.520;13.450;2023-08-17T00:20:59;600.97;;;372.77;;
13368;SDS011;6753;52.520;13.450;2023-08-17T00:21:10;602.60;;;371.30;;
13368;SDS011;6753;52.520;13.450;2023-08-17T00:21:21;597.33;;;367.35;;
13368;SDS011;6753;52.520;13.450;2023-08-17T00:21:31;594.10;;;364.37;;
13368;SDS011;6753;52.520;13.450;2023-08-17T00:21:43;586.15;;;357.42;;
13368;SDS011;6753;52.520;13.450;2023-08-17T00:21:54;574.03;;;349.17;;
13368;SDS011;6753;52.520;13.450;2023-08-17T00:22:05;566.50;;;343.85;;
13368;SDS011;6753;52.520;13.450;2023-08-17T00:22:16;564.90;;;344.15;;
13368;SDS011;6753;52.520;13.450;2023-08-17T00:22:27;567.88;;;344.98;;
13368;SDS011;6753;52.520;13.450;2023-08-17T00:22:37;571.00;;;347.17;;
13368;SDS011;6753;52.520;13.450;2023-08-17T00:22:49;581.70;;;356.38;;
13368;SDS011;6753;52.520;13.450;2023-08-17T00:23:00;588.30;;;361.13;;
13368;SDS011;6753;52.520;13.450;2023-08-17T00:23:14;588.63;;;362.95;;
13368;SDS011;6753;52.520;13.450;2023-08-17T00:23:24;587.63;;;361.52;;
13368;SDS011;6753;52.520;13.450;2023-08-17T00:23:35;588.90;;;360.10;;
13368;SDS011;6753;52.520;13.450;2023-08-17T00:23:46;591.17;;;361.23;;
13368;SDS011;6753;52.520;13.450;2023-08-17T00:23:57;594.33;;;362.10;;
13368;SDS011;6753;52.520;13.450;2023-08-17T00:24:07;594.55;;;361.88;;
13368;SDS011;6753;52.520;13.450;2023-08-17T00:24:18;591.25;;;360.65;;
13368;SDS011;6753;52.520;13.450;2023-08-17T00:24:30;585.38;;;359.08;;
13368;SDS011;6753;52.520;13.450;2023-08-17T00:24:41;575.95;;;354.25;;
13368;SDS011;6753;52.520;13.450;2023-08-17T00:24:54;567.15;;;345.52;;
13368;SDS011;6753;52.520;13.450;2023-08-17T00:25:05;557.78;;;338.38;;
13368;SDS011;6753;52.520;13.450;2023-08-17T00:25:16;553.97;;;335.10;;
13368;SDS011;6753;52.520;13.450;2023-08-17T00:25:27;552.25;;;332.80;;
13368;SDS011;6753;52.520;13.450;2023-08-17T00:25:37;556.08;;;330.95;;
13368;SDS011;6753;52.520;13.450;2023-08-17T00:25:48;556.88;;;332.90;;
13368;SDS011;6753;52.520;13.450;2023-08-17T00:25:59;564.83;;;338.50;;
13368;SDS011;6753;52.520;13.450;2023-08-17T00:26:10;568.50;;;341.98;;
13368;SDS011;6753;52.520;13.450;2023-08-17T00:26:22;577.63;;;346.40;;
13368;SDS011;6753;52.520;13.450;2023-08-17T00:26:32;577.60;;;349.10;;
13368;SDS011;6753;52.520;13.450;2023-08-17T00:26:43;575.47;;;349.90;;
13368;SDS011;6753;52.520;13.450;2023-08-17T00:26:54;569.40;;;346.50;;
13368;SDS011;6753;52.520;13.450;2023-08-17T00:27:04;563.17;;;342.05;;
13368;SDS011;6753;52.520;13.450;2023-08-17T00:27:15;561.10;;;339.97;;
13368;SDS011;6753;52.520;13.450;2023-08-17T00:27:26;556.40;;;339.58;;
13368;SDS011;6753;52.520;13.450;2023-08-17T00:27:37;555.97;;;338.35;;
13368;SDS011;6753;52.520;13.450;2023-08-17T00:27:47;561.47;;;339.53;;
13368;SDS011;6753;52.520;13.450;2023-08-17T00:27:59;564.95;;;341.35;;
13368;SDS011;6753;52.520;13.450;2023-08-17T00:28:10;567.83;;;345.17;;
13368;SDS011;6753;52.520;13.450;2023-08-17T00:28:20;569.15;;;344.23;;
13368;SDS011;6753;52.520;13.450;2023-08-17T00:28:31;568.07;;;342.33;;
13368;SDS011;6753;52.520;13.450;2023-08-17T00:28:42;569.05;;;343.05;;
13368;SDS011;6753;52.520;13.450;2023-08-17T00:28:53;565.33;;;341.13;;
13368;SDS011;6753;52.520;13.450;2023-08-17T00:29:04;566.83;;;341.08;;
13368;SDS011;6753;52.520;13.450;2023-08-17T00:29:14;568.20;;;339.90;;
13368;SDS011;6753;52.520;13.450;2023-08-17T00:29:27;565.83;;;339.45;;
13368;SDS011;6753;52.520;13.450;2023-08-17T00:29:37;566.90;;;341.60;;
13368;SDS011;6753;52.520;13.450;2023-08-17T00:29:48;567.50;;;342.17;;
13368;SDS011;6753;52.520;13.450;2023-08-17T00:29:59;563.40;;;342.00;;
13368;SDS011;6753;52.520;13.450;2023-08-17T00:30:10;554.60;;;338.90;;
13368;SDS011;6753;52.520;13.450;2023-08-17T00:30:21;552.17;;;338.75;;
13368;SDS011;6753;52.520;13.450;2023-08-17T00:30:32;553.80;;;337.77;;
13368;SDS011;6753;52.520;13.450;2023-08-17T00:30:46;553.72;;;336.63;;
13368;SDS011;6753;52.520;13.450;2023-08-17T00:30:56;559.50;;;337.02;;
13368;SDS011;6753;52.520;13.450;2023-08-17T00:31:07;562.70;;;337.42;;
13368;SDS011;6753;52.520;13.450;2023-08-17T00:31:18;566.38;;;338.42;;
13368;SDS011;6753;52.520;13.450;2023-08-17T00:31:29;566.33;;;336.73;;
13368;SDS011;6753;52.520;13.450;2023-08-17T00:31:40;564.17;;;335.40;;
13368;SDS011;6753;52.520;13.450;2023-08-17T00:31:51;563.08;;;336.00;;
13368;SDS011;6753;52.520;13.450;2023-08-17T00:32:02;563.67;;;336.55;;
13368;SDS011;6753;52.520;13.450;2023-08-17T00:32:14;566.25;;;337.88;;
13368;SDS011;6753;52.520;13.450;2023-08-17T00:32:24;567.70;;;339.75;;
13368;SDS011;6753;52.520;13.450;2023-08-17T00:32:36;563.42;;;339.52;;
13368;SDS011;6753;52.520;13.450;2023-08-17T00:32:47;563.00;;;338.98;;
13368;SDS011;6753;52.520;13.450;2023-08-17T00:32:58;563.10;;;339.23;;
13368;SDS011;6753;52.520;13.450;2023-08-17T00:33:09;560.50;;;339.13;;
13368;SDS011;6753;52.520;13.450;2023-08-17T00:33:20;560.97;;;338.70;;
13368;SDS011;6753;52.520;13.450;2023-08-17T00:33:32;563.00;;;340.10;;
13368;SDS011;6753;52.520;13.450;2023-08-17T00:33:42;565.70;;;341.40;;
13368;SDS011;6753;52.520;13.450;2023-08-17T00:33:53;564.80;;;341.53;;
13368;SDS011;6753;52.520;13.450;2023-08-17T00:34:04;565.45;;;341.52;;
13368;SDS011;6753;52.520;13.450;2023-08-17T00:34:15;563.92;;;341.73;;
13368;SDS011;6753;52.520;13.450;2023-08-17T00:34:25;561.28;;;339.17;;
13368;SDS011;6753;52.520;13.450;2023-08-17T00:34:36;556.60;;;335.47;;
13368;SDS011;6753;52.520;13.450;2023-08-17T00:34:47;550.42;;;329.38;;
13368;SDS011;6753;52.520;13.450;2023-08-17T00:34:57;542.13;;;320.48;;
13368;SDS011;6753;52.520;13.450;2023-08-17T00:35:08;539.20;;;315.20;;
13368;SDS011;6753;52.520;13.450;2023-08-17T00:35:19;531.10;;;309.77;;
13368;SDS011;6753;52.520;13.450;2023-08-17T00:35:30;532.25;;;309.00;;
13368;SDS011;6753;52.520;13.450;2023-08-17T00:35:41;529.35;;;309.55;;
13368;SDS011;6753;52.520;13.450;2023-08-17T00:35:53;535.85;;;315.08;;
13368;SDS011;6753;52.520;13.450;2023-08-17T00:36:04;540.30;;;317.85;;
13368;SDS011;6753;52.520;13.450;2023-08-17T00:36:15;545.42;;;321.35;;
13368;SDS011;6753;52.520;13.450;2023-08-17T00:36:25;545.97;;;323.13;;
13368;SDS011;6753;52.520;13.450;2023-08-17T00:36:36;549.50;;;324.40;;
13368;SDS011;6753;52.520;13.450;2023-08-17T00:36:47;551.22;;;325.48;;
13368;SDS011;6753;52.520;13.450;2023-08-17T00:36:58;550.35;;;326.80;;
13368;SDS011;6753;52.520;13.450;2023-08-17T00:37:08;550.57;;;327.10;;
13368;SDS011;6753;52.520;13.450;2023-08-17T00:37:19;553.75;;;328.85;;
13368;SDS011;6753;52.520;13.450;2023-08-17T00:37:31;556.53;;;327.88;;
13368;SDS011;6753;52.520;13.450;2023-08-17T00:37:42;551.77;;;324.40;;
13368;SDS011;6753;52.520;13.450;2023-08-17T00:37:52;548.42;;;322.10;;
13368;SDS011;6753;52.520;13.450;2023-08-17T00:38:03;545.65;;;320.00;;
13368;SDS011;6753;52.520;13.450;2023-08-17T00:38:14;539.90;;;318.07;;
13368;SDS011;6753;52.520;13.450;2023-08-17T00:38:24;536.13;;;315.52;;
13368;SDS011;6753;52.520;13.450;2023-08-17T00:38:35;534.17;;;314.88;;
13368;SDS011;6753;52.520;13.450;2023-08-17T00:38:46;537.30;;;317.13;;
13368;SDS011;6753;52.520;13.450;2023-08-17T00:38:57;535.40;;;316.30;;
13368;SDS011;6753;52.520;13.450;2023-08-17T00:39:08;532.10;;;313.40;;
13368;SDS011;6753;52.520;13.450;2023-08-17T00:39:19;532.63;;;311.90;;
13368;SDS011;6753;52.520;13.450;2023-08-17T00:39:30;529.90;;;313.40;;
13368;SDS011;6753;52.520;13.450;2023-08-17T00:39:41;529.97;;;312.63;;
13368;SDS011;6753;52.520;13.450;2023-08-17T00:39:51;530.83;;;312.80;;
13368;SDS011;6753;52.520;13.450;2023-08-17T00:40:02;534.47;;;313.55;;
13368;SDS011;6753;52.520;13.450;2023-08-17T00:40:14;532.83;;;314.40;;
13368;SDS011;6753;52.520;13.450;2023-08-17T00:40:24;536.90;;;314.70;;
13368;SDS011;6753;52.520;13.450;2023-08-17T00:40:35;538.35;;;315.90;;
13368;SDS011;6753;52.520;13.450;2023-08-17T00:40:46;538.80;;;316.70;;
13368;SDS011;6753;52.520;13.450;2023-08-17T00:40:57;541.75;;;318.88;;
13368;SDS011;6753;52.520;13.450;2023-08-17T00:41:08;545.05;;;322.40;;
13368;SDS011;6753;52.520;13.450;2023-08-17T00:41:19;544.30;;;323.10;;
13368;SDS011;6753;52.520;13.450;2023-08-17T00:41:30;541.55;;;323.95;;
13368;SDS011;6753;52.520;13.450;2023-08-17T00:41:41;546.38;;;325.98;;
13368;SDS011;6753;52.520;13.450;2023-08-17T00:41:51;547.50;;;327.17;;
13368;SDS011;6753;52.520;13.450;2023-08-17T00:42:02;547.60;;;326.07;;
13368;SDS011;6753;52.520;13.450;2023-08-17T00:42:13;546.55;;;325.17;;
13368;SDS011;6753;52.520;13.450;2023-08-17T00:42:24;549.50;;;326.42;;
13368;SDS011;6753;52.520;13.450;2023-08-17T00:42:35;548.75;;;324.85;;
13368;SDS011;6753;52.520;13.450;2023-08-17T00:42:45;547.70;;;326.17;;
13368;SDS011;6753;52.520;13.450;2023-08-17T00:42:57;545.75;;;327.92;;
13368;SDS011;6753;52.520;13.450;2023-08-17T00:43:08;545.15;;;327.08;;
13368;SDS011;6753;52.520;13.450;2023-08-17T00:43:19;544.22;;;326.17;;
13368;SDS011;6753;52.520;13.450;2023-08-17T00:43:29;543.00;;;324.53;;
13368;SDS011;6753;52.520;13.450;2023-08-17T00:43:40;540.20;;;321.20;;
13368;SDS011;6753;52.520;13.450;2023-08-17T00:43:51;541.60;;;319.58;;
13368;SDS011;6753;52.520;13.450;2023-08-17T00:44:02;543.28;;;320.23;;
13368;SDS011;6753;52.520;13.450;2023-08-17T00:44:13;543.92;;;320.30;;
13368;SDS011;6753;52.520;13.450;2023-08-17T00:44:23;544.47;;;321.87;;
13368;SDS011;6753;52.520;13.450;2023-08-17T00:44:34;546.00;;;323.60;;
13368;SDS011;6753;52.520;13.450;2023-08-17T00:44:45;549.30;;;324.80;;
13368;SDS011;6753;52.520;13.450;2023-08-17T00:44:56;547.03;;;320.80;;
13368;SDS011;6753;52.520;13.450;2023-08-17T00:45:08;543.22;;;319.20;;
13368;SDS011;6753;52.520;13.450;2023-08-17T00:45:19;542.13;;;317.30;;
13368;SDS011;6753;52.520;13.450;2023-08-17T00:45:31;540.42;;;316.10;;
13368;SDS011;6753;52.520;13.450;2023-08-17T00:45:42;536.60;;;315.38;;
13368;SDS011;6753;52.520;13.450;2023-08-17T00:45:54;533.22;;;315.35;;
13368;SDS011;6753;52.520;13.450;2023-08-17T00:46:05;536.22;;;316.48;;
13368;SDS011;6753;52.520;13.450;2023-08-17T00:46:16;535.70;;;317.77;;
13368;SDS011;6753;52.520;13.450;2023-08-17T00:46:27;535.20;;;316.27;;
13368;SDS011;6753;52.520;13.450;2023-08-17T00:46:38;531.63;;;312.98;;
13368;SDS011;6753;52.520;13.450;2023-08-17T00:46:49;531.22;;;312.83;;
13368;SDS011;6753;52.520;13.450;2023-08-17T00:47:00;531.70;;;313.13;;
13368;SDS011;6753;52.520;13.450;2023-08-17T00:47:12;532.05;;;312.25;;
13368;SDS011;6753;52.520;13.450;2023-08-17T00:47:23;532.03;;;312.75;;
13368;SDS011;6753;52.520;13.450;2023-08-17T00:47:36;534.00;;;313.45;;
13368;SDS011;6753;52.520;13.450;2023-08-17T00:47:47;538.45;;;315.08;;
13368;SDS011;6753;52.520;13.450;2023-08-17T00:47:58;537.28;;;315.55;;
13368;SDS011;6753;52.520;13.450;2023-08-17T00:48:09;536.10;;;315.33;;
13368;SDS011;6753;52.520;13.450;2023-08-17T00:48:21;535.07;;;314.70;;
13368;SDS011;6753;52.520;13.450;2023-08-17T00:48:33;537.20;;;315.02;;
13368;SDS011;6753;52.520;13.450;2023-08-17T00:48:45;535.42;;;313.92;;
13368;SDS011;6753;52.520;13.450;2023-08-17T00:48:55;534.38;;;313.25;;
13368;SDS011;6753;52.520;13.450;2023-08-17T00:49:08;536.25;;;312.23;;
13368;SDS011;6753;52.520;13.450;2023-08-17T00:49:21;532.38;;;309.90;;
13368;SDS011;6753;52.520;13.450;2023-08-17T00:49:32;533.78;;;310.50;;
13368;SDS011;6753;52.520;13.450;2023-08-17T00:49:44;533.22;;;311.55;;
13368;SDS011;6753;52.520;13.450;2023-08-17T00:49:55;534.50;;;311.60;;
13368;SDS011;6753;52.520;13.450;2023-08-17T00:50:07;534.03;;;312.40;;
13368;SDS011;6753;52.520;13.450;2023-08-17T00:50:19;532.13;;;312.42;;
13368;SDS011;6753;52.520;13.450;2023-08-17T00:50:31;529.38;;;311.90;;
13368;SDS011;6753;52.520;13.450;2023-08-17T00:50:42;529.05;;;310.45;;
13368;SDS011;6753;52.520;13.450;2023-08-17T00:50:56;525.27;;;309.53;;
13368;SDS011;6753;52.520;13.450;2023-08-17T00:51:09;522.33;;;308.15;;
13368;SDS011;6753;52.520;13.450;2023-08-17T00:51:21;522.78;;;307.00;;
13368;SDS011;6753;52.520;13.450;2023-08-17T00:51:33;520.78;;;304.98;;
13368;SDS011;6753;52.520;13.450;2023-08-17T00:51:44;518.30;;;303.67;;
13368;SDS011;6753;52.520;13.450;2023-08-17T00:51:55;516.97;;;302.67;;
13368;SDS011;6753;52.520;13.450;2023-08-17T00:52:06;515.90;;;301.98;;
13368;SDS011;6753;52.520;13.450;2023-08-17T00:52:17;516.28;;;302.67;;
13368;SDS011;6753;52.520;13.450;2023-08-17T00:52:28;517.83;;;305.58;;
13368;SDS011;6753;52.520;13.450;2023-08-17T00:52:40;517.88;;;304.20;;
13368;SDS011;6753;52.520;13.450;2023-08-17T00:52:52;519.95;;;304.75;;
13368;SDS011;6753;52.520;13.450;2023-08-17T00:53:07;524.10;;;306.02;;
13368;SDS011;6753;52.520;13.450;2023-08-17T00:53:23;522.55;;;304.27;;
13368;SDS011;6753;52.520;13.450;2023-08-17T00:53:35;518.33;;;302.10;;
13368;SDS011;6753;52.520;13.450;2023-08-17T00:53:46;515.23;;;300.30;;
13368;SDS011;6753;52.520;13.450;2023-08-17T00:53:58;514.05;;;299.27;;
13368;SDS011;6753;52.520;13.450;2023-08-17T00:54:10;511.40;;;297.23;;
13368;SDS011;6753;52.520;13.450;2023-08-17T00:54:23;511.55;;;296.88;;
13368;SDS011;6753;52.520;13.450;2023-08-17T00:54:35;513.22;;;296.25;;
13368;SDS011;6753;52.520;13.450;2023-08-17T00:54:47;513.28;;;296.33;;
13368;SDS011;6753;52.520;13.450;2023-08-17T00:54:58;511.67;;;295.23;;
13368;SDS011;6753;52.520;13.450;2023-08-17T00:55:11;508.90;;;293.77;;
13368;SDS011;6753;52.520;13.450;2023-08-17T00:55:22;508.10;;;293.60;;
13368;SDS011;6753;52.520;13.450;2023-08-17T00:55:34;507.92;;;293.75;;
13368;SDS011;6753;52.520;13.450;2023-08-17T00:55:45;508.05;;;293.67;;
13368;SDS011;6753;52.520;13.450;2023-08-17T00:55:55;502.73;;;291.60;;
13368;SDS011;6753;52.520;13.450;2023-08-17T00:56:06;501.75;;;290.50;;
13368;SDS011;6753;52.520;13.450;2023-08-17T00:56:18;502.42;;;289.73;;
13368;SDS011;6753;52.520;13.450;2023-08-17T00:56:29;501.38;;;289.13;;
13368;SDS011;6753;52.520;13.450;2023-08-17T00:56:40;503.08;;;288.95;;
13368;SDS011;6753;52.520;13.450;2023-08-17T00:56:52;505.15;;;288.70;;
13368;SDS011;6753;52.520;13.450;2023-08-17T00:57:03;506.95;;;289.33;;
13368;SDS011;6753;52.520;13.450;2023-08-17T00:57:16;508.42;;;290.17;;
13368;SDS011;6753;52.520;13.450;2023-08-17T00:57:29;507.00;;;288.65;;
13368;SDS011;6753;52.520;13.450;2023-08-17T00:57:41;503.90;;;286.88;;
13368;SDS011;6753;52.520;13.450;2023-08-17T00:57:52;503.77;;;289.02;;
13368;SDS011;6753;52.520;13.450;2023-08-17T00:58:05;503.85;;;288.40;;
13368;SDS011;6753;52.520;13.450;2023-08-17T00:58:16;500.50;;;286.95;;
13368;SDS011;6753;52.520;13.450;2023-08-17T00:58:27;499.33;;;287.40;;
13368;SDS011;6753;52.520;13.450;2023-08-17T00:58:38;500.30;;;286.85;;
13368;SDS011;6753;52.520;13.450;2023-08-17T00:58:49;497.90;;;284.55;;
13368;SDS011;6753;52.520;13.450;2023-08-17T00:59:03;497.50;;;284.25;;
13368;SDS011;6753;52.520;13.450;2023-08-17T00:59:15;495.83;;;283.45;;
13368;SDS011;6753;52.520;13.450;2023-08-17T00:59:26;496.92;;;283.73;;
13368;SDS011;6753;52.520;13.450;2023-08-17T00:59:37;494.25;;;284.80;;
13368;SDS011;6753;52.520;13.450;2023-08-17T00:59:48;493.73;;;284.23;;
13368;SDS011;6753;52.520;13.450;2023-08-17T00:59:59;492.25;;;283.15;;
13368;SDS011;6753;52.520;13.450;2023-08-17T01:00:11;490.92;;;282.30;;
13368;SDS011;6753;52.520;13.450;2023-08-17T01:00:23;490.38;;;282.92;;
13368;SDS011;6753;52.520;13.450;2023-08-17T01:00:35;491.98;;;282.48;;
13368;SDS011;6753;52.520;13.450;2023-08-17T01:00:46;492.70;;;284.25;;
13368;SDS011;6753;52.520;13.450;2023-08-17T01:00:57;496.10;;;285.73;;
13368;SDS011;6753;52.520;13.450;2023-08-17T01:01:08;498.10;;;286.05;;
13368;SDS011;6753;52.520;13.450;2023-08-17T01:01:19;495.55;;;283.95;;
13368;SDS011;6753;52.520;13.450;2023-08-17T01:01:32;494.90;;;282.42;;
13368;SDS011;6753;52.520;13.450;2023-08-17T01:01:43;496.77;;;280.90;;
13368;SDS011;6753;52.520;13.450;2023-08-17T01:01:54;495.40;;;279.10;;
13368;SDS011;6753;52.520;13.450;2023-08-17T01:02:05;496.45;;;278.40;;
13368;SDS011;6753;52.520;13.450;2023-08-17T01:02:17;496.55;;;278.50;;
13368;SDS011;6753;52.520;13.450;2023-08-17T01:02:28;499.25;;;279.10;;
13368;SDS011;6753;52.520;13.450;2023-08-17T01:02:41;499.95;;;280.38;;
13368;SDS011;6753;52.520;13.450;2023-08-17T01:02:52;496.48;;;278.20;;
13368;SDS011;6753;52.520;13.450;2023-08-17T01:03:03;495.95;;;278.42;;
13368;SDS011;6753;52.520;13.450;2023-08-17T01:03:15;499.13;;;280.25;;
13368;SDS011;6753;52.520;13.450;2023-08-17T01:03:29;497.42;;;278.70;;
13368;SDS011;6753;52.520;13.450;2023-08-17T01:03:42;494.92;;;277.45;;